Time;durP1;ratioP1;P1;durP2;ratioP2;P2;SDS_P1;SDS_P2;PMS_P1;PMS_P2;Temp;Humidity;BMP_temperature;BMP_pressure;BME280_temperature;BME280_humidity;BME280_pressure;Samples;Min_cycle;Max_cycle;Signal;HPM_P1;HPM_P2
2021/04/27 00:00:09;;;;;;;3.93;2.80;;;;;;;7.46;41.19;153275.06;5018888;28;20480;-82
2021/04/27 00:02:44;;;;;;;4.00;2.87;;;;;;;7.45;41.44;153272.47;5054642;28;20941;-81
2021/04/27 00:05:19;;;;;;;5.60;3.70;;;;;;;7.42;40.98;153264.69;5038824;28;20455;-81
2021/04/27 00:07:55;;;;;;;3.70;3.00;;;;;;;7.39;41.33;153257.00;5040049;28;20420;-81
2021/04/27 00:10:31;;;;;;;4.33;3.30;;;;;;;7.28;41.64;153229.88;5038503;28;20928;-81
2021/04/27 00:13:06;;;;;;;3.70;3.40;;;;;;;7.29;41.40;153233.72;5040145;28;20420;-81
2021/04/27 00:15:41;;;;;;;3.50;3.20;;;;;;;7.27;42.39;153228.56;5038756;28;20451;-82
2021/04/27 00:18:16;;;;;;;4.37;3.47;;;;;;;7.24;42.15;153220.81;5071730;28;20467;-81
2021/04/27 00:20:51;;;;;;;4.40;2.90;;;;;;;7.22;42.17;153215.66;5040643;28;20447;-81
2021/04/27 00:23:27;;;;;;;3.53;3.00;;;;;;;7.15;42.30;153197.56;5038918;28;20447;-81
2021/04/27 00:26:02;;;;;;;8.50;3.10;;;;;;;7.09;42.98;153180.81;5039178;28;20463;-81
2021/04/27 00:28:37;;;;;;;6.63;3.63;;;;;;;7.05;43.20;153171.75;5034966;28;20460;-81
2021/04/27 00:31:13;;;;;;;5.20;3.27;;;;;;;7.00;42.65;153157.53;5034393;28;20425;-82
2021/04/27 00:33:48;;;;;;;3.90;2.70;;;;;;;6.97;43.25;153151.09;5035713;28;20428;-81
2021/04/27 00:36:23;;;;;;;5.90;2.60;;;;;;;6.93;42.89;153139.47;5051658;28;20451;-81
2021/04/27 00:38:59;;;;;;;3.47;2.50;;;;;;;6.92;43.71;153136.88;5055198;28;20483;-82
2021/04/27 00:41:34;;;;;;;4.80;3.27;;;;;;;6.88;43.22;153126.59;5056220;28;20828;-82
2021/04/27 00:44:10;;;;;;;5.83;2.97;;;;;;;6.85;43.56;153118.81;5018488;28;20439;-82
2021/04/27 00:46:45;;;;;;;3.90;3.27;;;;;;;6.88;43.62;153126.59;5031617;28;20447;-82
2021/04/27 00:49:20;;;;;;;3.93;3.00;;;;;;;6.91;43.32;153134.34;5054891;28;21209;-82
2021/04/27 00:51:55;;;;;;;7.60;2.77;;;;;;;6.86;43.90;153122.69;5039648;28;20420;-82
2021/04/27 00:54:32;;;;;;;2.70;2.37;;;;;;;6.79;43.58;153104.63;5055237;28;20440;-83
2021/04/27 00:57:07;;;;;;;3.97;2.80;;;;;;;6.79;43.80;153103.31;5038913;28;20773;-82
2021/04/27 00:59:42;;;;;;;5.27;3.07;;;;;;;6.73;43.89;153089.13;5039111;28;20574;-82
2021/04/27 01:02:17;;;;;;;3.67;3.03;;;;;;;6.69;44.49;153078.81;5038898;28;20796;-81
2021/04/27 01:04:52;;;;;;;6.20;3.00;;;;;;;6.68;44.75;153076.22;5068193;28;20455;-82
2021/04/27 01:07:31;;;;;;;3.90;2.93;;;;;;;6.63;44.86;153063.31;5019508;28;20444;-82
2021/04/27 01:10:11;;;;;;;3.20;2.90;;;;;;;6.62;44.70;153060.72;5048022;28;20578;-82
2021/04/27 01:12:52;;;;;;;4.30;3.17;;;;;;;6.59;44.76;153054.28;5051899;28;20531;-81
2021/04/27 01:15:29;;;;;;;6.63;3.10;;;;;;;6.54;45.21;153040.13;5051614;28;20498;-82
2021/04/27 01:18:04;;;;;;;3.90;2.80;;;;;;;6.49;45.53;153027.16;5034801;28;20416;-82
2021/04/27 01:20:42;;;;;;;4.33;3.30;;;;;;;6.44;45.48;153014.28;5035545;28;20547;-82
2021/04/27 01:23:52;;;;;;;3.30;2.80;;;;;;;6.36;45.49;152993.63;5044390;28;20444;-82
2021/04/27 01:26:33;;;;;;;5.40;3.50;;;;;;;6.32;45.24;152983.31;5005503;28;20539;-82
2021/04/27 01:29:12;;;;;;;4.50;3.33;;;;;;;6.30;45.66;152979.41;5034500;28;20926;-82
2021/04/27 01:31:47;;;;;;;3.87;3.30;;;;;;;6.25;46.28;152965.28;5034584;28;20444;-82
2021/04/27 01:34:26;;;;;;;6.13;3.40;;;;;;;6.21;46.53;152954.94;5049955;28;20480;-81
2021/04/27 01:37:03;;;;;;;6.00;3.00;;;;;;;6.21;46.82;152954.94;5035869;28;20850;-81
2021/04/27 01:39:39;;;;;;;5.33;3.17;;;;;;;6.14;46.23;152939.44;5018824;28;20511;-81
2021/04/27 01:42:15;;;;;;;4.97;3.63;;;;;;;6.12;47.18;152934.28;5034718;28;20436;-81
2021/04/27 01:44:52;;;;;;;4.90;3.97;;;;;;;6.12;47.09;152932.97;5034614;28;20448;-81
2021/04/27 01:47:27;;;;;;;3.63;3.10;;;;;;;6.08;46.76;152922.69;5015200;28;20445;-81
2021/04/27 01:50:03;;;;;;;7.03;3.23;;;;;;;6.04;47.48;152913.63;5014334;28;20445;-81
2021/04/27 01:52:57;;;;;;;5.20;3.13;;;;;;;6.00;47.96;152903.34;5023256;28;20450;-81
2021/04/27 01:55:32;;;;;;;4.77;3.83;;;;;;;6.03;47.23;152909.78;5031373;28;20448;-81
2021/04/27 01:58:08;;;;;;;3.53;3.23;;;;;;;6.03;47.27;152911.09;5030500;28;20453;-81
2021/04/27 02:00:44;;;;;;;3.73;3.37;;;;;;;6.01;47.10;152905.88;5005559;28;20937;-82
2021/04/27 02:03:19;;;;;;;5.33;3.60;;;;;;;5.98;47.81;152898.16;5047462;28;20440;-81
2021/04/27 02:06:30;;;;;;;4.27;3.10;;;;;;;5.98;47.74;152898.16;4977510;28;20438;-81
2021/04/27 02:09:11;;;;;;;6.23;3.30;;;;;;;5.96;48.23;152893.00;5014103;28;20440;-80
2021/04/27 02:11:49;;;;;;;4.90;3.10;;;;;;;5.92;48.60;152882.69;5018817;28;20448;-81
2021/04/27 02:14:28;;;;;;;4.03;3.57;;;;;;;5.87;47.75;152869.81;5033326;28;20448;-81
2021/04/27 02:17:08;;;;;;;3.50;3.20;;;;;;;5.82;48.41;152856.88;5012452;28;20543;-81
2021/04/27 02:19:46;;;;;;;4.70;3.60;;;;;;;5.83;48.51;152859.41;5059144;28;20479;-81
2021/04/27 02:22:53;;;;;;;3.60;3.30;;;;;;;5.73;48.59;152832.34;5034417;28;20455;-81
2021/04/27 02:25:52;;;;;;;3.53;3.23;;;;;;;5.69;48.71;152823.34;5047008;28;20539;-81
2021/04/27 02:28:28;;;;;;;5.60;3.13;;;;;;;5.65;48.79;152813.00;5034408;28;20452;-81
2021/04/27 02:31:04;;;;;;;6.10;3.17;;;;;;;5.62;49.19;152805.25;5031732;28;20843;-81
2021/04/27 02:33:39;;;;;;;4.83;3.73;;;;;;;5.59;49.60;152796.25;5045429;28;20444;-81
2021/04/27 02:36:14;;;;;;;5.30;3.30;;;;;;;5.58;49.36;152794.97;5038479;28;20491;-81
2021/04/27 02:39:25;;;;;;;3.87;3.23;;;;;;;5.54;49.46;152784.63;5016663;28;20476;-81
2021/04/27 02:42:00;;;;;;;5.23;3.50;;;;;;;5.53;50.10;152782.06;5033833;28;20779;-81
2021/04/27 02:44:55;;;;;;;5.83;3.77;;;;;;;5.52;49.88;152779.47;5030137;28;20828;-81
2021/04/27 02:48:07;;;;;;;5.30;3.30;;;;;;;5.45;49.83;152762.69;5031413;28;20448;-81
2021/04/27 02:50:47;;;;;;;8.73;4.13;;;;;;;5.45;50.19;152762.69;5018324;28;20452;-81
2021/04/27 02:53:23;;;;;;;5.00;3.17;;;;;;;5.46;50.52;152764.00;5033765;28;20425;-81
2021/04/27 02:55:59;;;;;;;4.07;3.67;;;;;;;5.40;50.39;152748.56;5048565;28;20448;-81
2021/04/27 02:58:35;;;;;;;3.77;3.20;;;;;;;5.40;50.05;152748.56;5049315;28;20468;-81
2021/04/27 03:01:10;;;;;;;4.47;3.10;;;;;;;5.38;50.43;152743.34;5048429;28;20527;-81
2021/04/27 03:03:47;;;;;;;3.40;3.00;;;;;;;5.32;50.89;152729.16;5017993;28;20910;-81
2021/04/27 03:06:22;;;;;;;6.70;3.50;;;;;;;5.32;51.04;152729.16;5032976;28;20451;-81
2021/04/27 03:09:10;;;;;;;3.60;3.27;;;;;;;5.35;50.58;152735.63;5032467;28;20472;-81
2021/04/27 03:11:48;;;;;;;4.50;3.20;;;;;;;5.36;50.78;152738.22;5033908;28;20408;-81
2021/04/27 03:14:24;;;;;;;3.00;2.70;;;;;;;5.36;51.22;152738.22;5027693;28;20489;-81
2021/04/27 03:16:59;;;;;;;5.00;3.20;;;;;;;5.37;51.07;152740.81;5019409;28;20447;-81
2021/04/27 03:19:36;;;;;;;5.40;3.60;;;;;;;5.35;50.84;152735.63;5032962;28;20464;-81
2021/04/27 03:22:22;;;;;;;4.17;3.40;;;;;;;5.30;50.75;152722.72;5032652;28;20440;-81
2021/04/27 03:24:58;;;;;;;5.33;3.53;;;;;;;5.29;51.75;152720.19;5048438;28;20452;-81
2021/04/27 03:27:33;;;;;;;6.23;3.90;;;;;;;5.29;51.34;152720.19;5032446;28;20448;-82
2021/04/27 03:30:37;;;;;;;5.40;3.13;;;;;;;5.27;51.62;152715.03;5027901;28;20915;-81
2021/04/27 03:33:23;;;;;;;5.70;3.73;;;;;;;5.26;51.80;152712.44;5016945;28;20954;-81
2021/04/27 03:36:02;;;;;;;4.17;3.70;;;;;;;5.28;51.46;152717.59;5046695;28;20452;-81
2021/04/27 03:38:39;;;;;;;4.73;3.70;;;;;;;5.26;52.02;152713.75;5015454;28;20471;-82
2021/04/27 03:41:14;;;;;;;4.87;3.80;;;;;;;5.24;52.16;152707.28;5048419;28;20447;-82
2021/04/27 03:43:50;;;;;;;4.90;3.30;;;;;;;5.24;51.81;152707.28;5028030;28;20878;-81
2021/04/27 03:46:27;;;;;;;8.37;3.73;;;;;;;5.27;52.02;152715.03;5045808;28;20467;-81
2021/04/27 03:49:04;;;;;;;4.07;3.30;;;;;;;5.24;52.41;152707.28;5030998;28;20436;-81
2021/04/27 03:51:40;;;;;;;4.73;3.40;;;;;;;5.19;52.85;152695.66;5011746;28;20444;-81
2021/04/27 03:54:19;;;;;;;4.37;3.93;;;;;;;5.05;52.62;152658.31;5012577;28;20428;-81
2021/04/27 03:56:55;;;;;;;5.60;3.80;;;;;;;5.07;52.79;152663.44;5015665;28;20429;-81
2021/04/27 03:59:30;;;;;;;6.50;3.00;;;;;;;5.12;52.49;152676.31;5048826;28;20480;-81
2021/04/27 04:02:06;;;;;;;3.53;3.10;;;;;;;5.14;52.85;152681.47;5019254;28;20451;-81
2021/04/27 04:04:41;;;;;;;4.73;4.00;;;;;;;5.13;52.55;152678.94;5017026;28;20443;-81
2021/04/27 04:07:29;;;;;;;6.70;3.70;;;;;;;5.06;52.76;152662.16;5014479;28;20456;-81
2021/04/27 04:10:28;;;;;;;5.10;3.23;;;;;;;5.06;52.49;152662.16;5049537;28;20967;-81
2021/04/27 04:13:03;;;;;;;6.13;3.97;;;;;;;5.05;53.01;152658.31;5031562;28;20424;-81
2021/04/27 04:15:38;;;;;;;7.20;3.27;;;;;;;5.01;53.85;152647.97;5032843;28;20447;-81
2021/04/27 04:18:13;;;;;;;4.13;3.50;;;;;;;5.00;53.77;152645.41;5030388;28;20437;-81
2021/04/27 04:20:49;;;;;;;4.70;3.43;;;;;;;4.89;53.81;152619.66;5055880;28;20454;-81
2021/04/27 04:23:51;;;;;;;6.90;3.57;;;;;;;4.84;54.13;152606.72;5033063;28;20423;-82
2021/04/27 04:26:28;;;;;;;3.67;3.10;;;;;;;4.86;54.54;152611.91;5031704;28;20455;-81
2021/04/27 04:29:24;;;;;;;4.67;3.43;;;;;;;4.86;54.52;152610.63;5048271;28;20432;-81
2021/04/27 04:32:19;;;;;;;5.20;3.30;;;;;;;4.87;54.29;152613.22;5032739;28;20412;-81
2021/04/27 04:35:33;;;;;;;4.57;3.60;;;;;;;4.79;54.47;152592.59;5030854;28;20447;-81
2021/04/27 04:38:27;;;;;;;5.10;3.43;;;;;;;4.74;55.09;152580.97;5032137;28;20539;-81
2021/04/27 04:41:23;;;;;;;4.23;3.33;;;;;;;4.74;55.19;152580.97;5018348;28;20453;-81
2021/04/27 04:44:17;;;;;;;5.43;3.63;;;;;;;4.75;55.37;152582.25;5036674;28;20440;-81
2021/04/27 04:47:10;;;;;;;4.67;3.30;;;;;;;4.77;55.15;152587.41;5035617;28;20914;-81
2021/04/27 04:50:08;;;;;;;5.47;4.70;;;;;;;4.78;55.51;152591.28;5035359;28;20984;-81
2021/04/27 04:53:12;;;;;;;4.33;3.80;;;;;;;4.79;55.45;152593.84;5032691;28;20444;-81
2021/04/27 04:55:52;;;;;;;7.83;3.87;;;;;;;4.85;55.76;152608.03;5021451;28;20460;-81
2021/04/27 04:58:49;;;;;;;8.30;4.10;;;;;;;4.83;55.30;152602.88;5056765;28;20979;-81
2021/04/27 05:01:24;;;;;;;4.13;3.73;;;;;;;4.87;55.77;152614.47;5036078;28;20416;-83
2021/04/27 05:04:37;;;;;;;4.23;3.40;;;;;;;4.84;55.45;152606.72;5014860;28;20813;-81
2021/04/27 05:07:46;;;;;;;5.57;3.60;;;;;;;4.83;55.75;152604.16;5024008;28;20471;-80
2021/04/27 05:10:56;;;;;;;3.93;3.50;;;;;;;4.87;55.52;152614.47;4996929;28;20485;-80
2021/04/27 05:13:45;;;;;;;4.63;3.90;;;;;;;4.91;55.74;152624.78;5031850;28;20503;-80
2021/04/27 05:16:21;;;;;;;5.40;3.23;;;;;;;5.00;55.45;152645.41;5037620;28;20436;-79
2021/04/27 05:18:57;;;;;;;5.10;3.80;;;;;;;5.08;55.24;152667.34;5047736;28;20834;-81
2021/04/27 05:21:33;;;;;;;4.93;4.50;;;;;;;5.13;55.45;152678.94;5020610;28;20451;-81
2021/04/27 05:24:09;;;;;;;6.63;4.17;;;;;;;5.20;55.06;152696.94;5023193;28;20769;-80
2021/04/27 05:26:45;;;;;;;5.40;4.17;;;;;;;5.19;54.83;152695.66;5015206;28;20425;-81
2021/04/27 05:29:22;;;;;;;5.07;3.67;;;;;;;5.20;54.87;152696.94;5034644;28;20440;-80
2021/04/27 05:31:59;;;;;;;6.03;3.87;;;;;;;5.29;54.93;152721.47;5035015;28;20487;-80
2021/04/27 05:34:34;;;;;;;5.67;4.40;;;;;;;5.38;54.79;152743.34;5035241;28;20935;-80
2021/04/27 05:37:09;;;;;;;5.23;3.93;;;;;;;5.46;54.06;152765.28;5035877;28;20911;-80
2021/04/27 05:39:44;;;;;;;5.40;3.80;;;;;;;5.57;54.71;152792.38;5044750;28;20914;-80
2021/04/27 05:42:19;;;;;;;5.00;3.70;;;;;;;5.69;54.12;152823.34;5059770;28;20456;-80
2021/04/27 05:44:54;;;;;;;5.30;4.60;;;;;;;5.80;53.49;152851.66;5038847;28;20934;-81
2021/04/27 05:47:30;;;;;;;10.47;5.00;;;;;;;5.90;53.09;152877.56;5017258;28;20448;-80
2021/04/27 05:50:06;;;;;;;5.13;3.53;;;;;;;6.11;52.78;152930.44;5028895;28;20457;-81
2021/04/27 05:52:42;;;;;;;6.00;4.60;;;;;;;6.32;52.50;152983.31;5032359;28;20440;-80
2021/04/27 05:55:17;;;;;;;4.90;4.27;;;;;;;6.51;51.97;153033.63;5061647;28;20455;-81
2021/04/27 05:57:52;;;;;;;6.27;4.83;;;;;;;6.62;50.99;153060.72;5064746;28;20515;-80
2021/04/27 06:00:28;;;;;;;6.90;4.47;;;;;;;6.73;50.52;153090.41;5029291;28;20817;-82
2021/04/27 06:03:04;;;;;;;6.27;3.87;;;;;;;6.99;50.47;153156.25;5034288;28;20416;-81
2021/04/27 06:05:39;;;;;;;5.03;4.37;;;;;;;7.09;50.91;153180.81;5049157;28;20445;-82
2021/04/27 06:08:15;;;;;;;5.67;4.10;;;;;;;7.28;49.77;153231.13;5033487;28;20448;-82
2021/04/27 06:10:49;;;;;;;8.30;4.80;;;;;;;7.38;49.79;153254.41;5065927;28;20554;-82
2021/04/27 06:13:25;;;;;;;7.70;5.00;;;;;;;7.59;49.25;153308.63;5034797;28;20887;-82
2021/04/27 06:16:00;;;;;;;8.23;5.10;;;;;;;7.77;49.26;153356.44;5030489;28;20459;-82
2021/04/27 06:18:36;;;;;;;5.00;4.10;;;;;;;7.90;48.47;153388.72;5037400;28;20861;-82
2021/04/27 06:21:12;;;;;;;6.47;4.27;;;;;;;8.13;48.10;153446.88;5033703;28;20788;-81
2021/04/27 06:23:47;;;;;;;7.40;5.43;;;;;;;8.18;47.73;153461.06;5032881;28;21055;-81
2021/04/27 06:26:22;;;;;;;18.13;4.80;;;;;;;8.31;47.67;153494.72;5013360;28;20826;-82
2021/04/27 06:28:57;;;;;;;7.23;5.60;;;;;;;8.51;47.28;153546.44;5030320;28;20450;-81
2021/04/27 06:31:33;;;;;;;6.80;5.77;;;;;;;8.70;47.11;153592.97;5033838;28;20532;-81
2021/04/27 06:34:09;;;;;;;5.73;5.13;;;;;;;8.79;46.87;153616.25;5034534;28;20419;-81
2021/04/27 06:36:44;;;;;;;6.83;5.97;;;;;;;8.97;46.27;153662.81;5033945;28;20454;-81
2021/04/27 06:39:19;;;;;;;6.70;5.53;;;;;;;8.77;46.45;153612.34;5047442;28;20470;-81
2021/04/27 06:41:54;;;;;;;9.53;5.60;;;;;;;9.23;45.79;153730.03;5032206;28;20473;-82
2021/04/27 06:44:29;;;;;;;7.90;6.20;;;;;;;9.36;45.55;153763.66;5045842;28;20501;-83
2021/04/27 06:47:06;;;;;;;7.53;6.07;;;;;;;9.42;45.67;153779.22;5032623;28;20462;-83
2021/04/27 06:49:42;;;;;;;6.17;5.57;;;;;;;9.43;44.83;153780.47;5037754;28;20481;-82
2021/04/27 06:52:17;;;;;;;9.67;6.00;;;;;;;9.58;45.52;153820.56;5045134;28;20451;-83
2021/04/27 06:54:52;;;;;;;8.33;5.97;;;;;;;9.85;44.83;153887.88;5039485;28;20455;-83
2021/04/27 06:57:28;;;;;;;6.30;5.47;;;;;;;9.92;44.45;153907.28;5031197;28;20451;-83
2021/04/27 07:00:05;;;;;;;6.23;5.27;;;;;;;9.96;44.06;153916.31;5018225;28;20558;-83
2021/04/27 07:02:39;;;;;;;6.87;6.10;;;;;;;10.13;44.23;153960.41;5022957;28;20451;-83
2021/04/27 07:05:15;;;;;;;11.43;6.37;;;;;;;10.28;43.36;153999.22;5028768;28;20439;-83
2021/04/27 07:07:51;;;;;;;7.20;5.63;;;;;;;10.34;44.59;154014.75;5032933;28;20534;-82
2021/04/27 07:10:26;;;;;;;8.33;6.97;;;;;;;10.27;43.51;153996.66;5029254;28;20500;-82
2021/04/27 07:13:01;;;;;;;7.50;6.40;;;;;;;10.34;43.45;154014.75;5030141;28;20455;-82
2021/04/27 07:15:36;;;;;;;6.53;5.83;;;;;;;10.64;43.52;154092.47;5062469;28;20452;-82
2021/04/27 07:18:11;;;;;;;9.60;5.97;;;;;;;10.84;43.13;154144.25;5051652;28;20459;-82
2021/04/27 07:20:47;;;;;;;8.60;6.33;;;;;;;11.38;42.25;154281.56;5038152;28;20456;-82
2021/04/27 07:23:22;;;;;;;6.67;6.07;;;;;;;11.63;41.33;154346.31;5063741;28;20842;-83
2021/04/27 07:25:57;;;;;;;7.70;6.47;;;;;;;11.54;41.48;154324.28;5021235;28;20483;-83
2021/04/27 07:28:32;;;;;;;6.20;5.60;;;;;;;11.64;41.35;154348.94;5030050;28;20448;-83
2021/04/27 07:31:07;;;;;;;8.40;5.73;;;;;;;11.78;41.53;154385.22;5063255;28;20460;-83
2021/04/27 07:33:42;;;;;;;7.73;6.90;;;;;;;12.07;40.76;154459.16;5063787;28;20475;-83
2021/04/27 07:36:19;;;;;;;7.27;6.40;;;;;;;12.54;39.64;154579.72;5014587;28;20460;-84
2021/04/27 07:38:54;;;;;;;8.30;5.70;;;;;;;12.60;39.44;154596.56;5009835;28;20835;-84
2021/04/27 07:41:29;;;;;;;8.70;6.20;;;;;;;12.74;40.22;154632.88;5023993;28;20440;-84
2021/04/27 07:44:06;;;;;;;7.47;6.77;;;;;;;12.13;40.17;154474.66;5029892;28;20457;-84
2021/04/27 07:46:41;;;;;;;7.10;6.40;;;;;;;12.26;40.64;154507.13;5048109;28;20454;-84
2021/04/27 07:49:16;;;;;;;6.67;5.97;;;;;;;12.49;40.70;154568.06;5026678;28;20798;-83
2021/04/27 07:51:52;;;;;;;7.20;6.03;;;;;;;12.82;40.11;154652.31;5040116;28;20806;-84
2021/04/27 07:54:27;;;;;;;7.20;6.20;;;;;;;13.23;39.33;154758.78;5031246;28;20434;-84
2021/04/27 07:57:02;;;;;;;8.50;6.70;;;;;;;13.71;38.39;154880.78;5032799;28;20502;-83
2021/04/27 07:59:38;;;;;;;11.63;6.67;;;;;;;13.86;38.55;154919.69;5039732;28;20471;-84
2021/04/27 08:02:13;;;;;;;9.30;6.87;;;;;;;13.39;37.93;154800.31;5019090;28;20455;-83
2021/04/27 08:04:48;;;;;;;7.43;6.27;;;;;;;13.82;38.35;154909.34;5052495;28;20432;-84
2021/04/27 08:07:24;;;;;;;12.70;6.47;;;;;;;13.57;38.47;154844.41;5031712;28;20448;-84
2021/04/27 08:09:59;;;;;;;7.20;6.13;;;;;;;13.91;37.68;154933.97;5051342;28;20479;-84
2021/04/27 08:12:34;;;;;;;7.73;6.70;;;;;;;13.46;38.43;154815.84;5016520;28;20545;-84
2021/04/27 08:15:12;;;;;;;11.40;6.10;;;;;;;13.94;38.48;154940.47;5034666;28;20458;-84
2021/04/27 08:17:47;;;;;;;7.03;6.33;;;;;;;13.70;37.52;154878.16;5034138;28;20459;-83
2021/04/27 08:20:22;;;;;;;10.07;6.50;;;;;;;13.96;37.94;154945.66;5067856;28;20475;-83
2021/04/27 08:22:59;;;;;;;7.73;6.90;;;;;;;14.27;36.87;155026.13;5035036;28;20561;-82
2021/04/27 08:25:34;;;;;;;8.60;6.60;;;;;;;13.74;37.92;154888.56;5048678;28;20979;-83
2021/04/27 08:28:09;;;;;;;8.07;7.27;;;;;;;13.34;38.24;154787.28;5031616;28;20956;-83
2021/04/27 08:30:44;;;;;;;13.80;8.90;;;;;;;13.65;37.86;154865.19;5032977;28;20914;-83
2021/04/27 08:33:20;;;;;;;7.90;7.00;;;;;;;13.50;38.50;154826.25;5034076;28;20444;-82
2021/04/27 08:35:55;;;;;;;8.87;6.73;;;;;;;13.50;38.79;154826.25;5033641;28;20778;-83
2021/04/27 08:38:31;;;;;;;8.37;6.93;;;;;;;13.96;38.08;154946.94;5047902;28;20455;-83
2021/04/27 08:41:06;;;;;;;7.50;6.80;;;;;;;13.98;37.84;154950.81;5048859;28;20444;-83
2021/04/27 08:43:42;;;;;;;10.20;7.37;;;;;;;13.87;38.37;154923.56;5065397;28;20455;-83
2021/04/27 08:46:17;;;;;;;8.77;7.57;;;;;;;13.50;38.66;154826.25;5031544;28;20475;-83
2021/04/27 08:48:53;;;;;;;9.57;7.27;;;;;;;13.53;38.58;154835.31;5029853;28;20450;-83
2021/04/27 08:51:28;;;;;;;9.10;7.80;;;;;;;13.75;38.56;154891.13;5028550;28;20479;-82
2021/04/27 08:54:04;;;;;;;10.10;7.27;;;;;;;13.14;38.83;154735.41;5062453;28;20544;-82
2021/04/27 08:56:39;;;;;;;9.63;7.40;;;;;;;13.42;38.16;154806.81;5034305;28;20453;-82
2021/04/27 08:59:15;;;;;;;8.90;8.00;;;;;;;13.61;37.75;154854.81;5036094;28;20467;-82
2021/04/27 09:01:50;;;;;;;8.47;6.73;;;;;;;13.43;38.23;154810.66;5035014;28;20446;-82
2021/04/27 09:04:41;;;;;;;9.67;6.90;;;;;;;14.09;38.31;154979.41;5034998;28;20447;-82
2021/04/27 09:07:19;;;;;;;7.40;6.80;;;;;;;13.61;38.43;154854.81;5028087;28;20460;-82
2021/04/27 09:09:56;;;;;;;9.03;7.70;;;;;;;14.11;38.55;154983.31;5025091;28;20503;-82
2021/04/27 09:12:32;;;;;;;8.80;7.90;;;;;;;14.32;37.54;155039.16;5022871;28;20473;-82
2021/04/27 09:15:08;;;;;;;8.83;7.57;;;;;;;14.09;37.39;154979.41;5057273;28;20946;-82
2021/04/27 09:17:43;;;;;;;9.57;8.57;;;;;;;13.32;38.72;154782.13;5042884;28;20453;-82
2021/04/27 09:20:18;;;;;;;10.97;7.47;;;;;;;13.11;39.28;154727.63;5018580;28;20479;-82
2021/04/27 09:23:07;;;;;;;12.17;7.20;;;;;;;13.47;39.08;154818.47;5066381;28;20450;-82
2021/04/27 09:25:47;;;;;;;8.47;7.67;;;;;;;13.00;40.05;154699.03;5033730;28;20451;-82
2021/04/27 09:28:32;;;;;;;9.13;8.23;;;;;;;12.93;40.18;154680.88;5023158;28;20442;-81
2021/04/27 09:31:24;;;;;;;11.17;6.97;;;;;;;13.06;40.37;154713.28;5028661;28;20482;-82
2021/04/27 09:34:19;;;;;;;9.13;8.23;;;;;;;13.24;39.60;154761.34;5050563;28;20498;-82
2021/04/27 09:36:56;;;;;;;11.27;8.23;;;;;;;12.65;40.46;154609.56;5034473;28;20449;-83
2021/04/27 09:39:37;;;;;;;10.03;8.27;;;;;;;12.42;40.96;154548.56;5049316;28;20463;-83
2021/04/27 09:42:15;;;;;;;9.47;8.30;;;;;;;12.74;41.60;154631.56;5034965;28;20447;-83
2021/04/27 09:44:53;;;;;;;8.83;7.93;;;;;;;13.02;41.11;154704.25;5035545;28;20440;-83
2021/04/27 09:47:30;;;;;;;11.07;8.37;;;;;;;12.59;41.15;154594.00;5015830;28;20464;-83
2021/04/27 09:50:08;;;;;;;11.20;8.20;;;;;;;12.76;41.38;154636.81;5036985;28;20422;-83
2021/04/27 09:52:46;;;;;;;8.83;6.83;;;;;;;13.11;40.98;154726.31;5071401;28;20444;-83
2021/04/27 09:55:21;;;;;;;8.90;8.00;;;;;;;12.95;41.06;154684.75;5036808;28;20418;-83
2021/04/27 09:57:58;;;;;;;9.20;7.73;;;;;;;13.03;41.10;154705.50;5002469;28;20428;-83
2021/04/27 10:00:35;;;;;;;10.53;7.60;;;;;;;12.79;40.79;154644.53;5033408;28;20468;-83
2021/04/27 10:03:12;;;;;;;11.13;8.07;;;;;;;13.05;40.85;154710.72;5067935;28;20444;-83
2021/04/27 10:05:48;;;;;;;8.67;7.83;;;;;;;13.46;41.90;154815.84;5053611;28;21227;-83
2021/04/27 10:08:24;;;;;;;10.73;8.80;;;;;;;13.63;40.67;154860.00;5045643;28;20443;-83
2021/04/27 10:10:59;;;;;;;11.07;8.00;;;;;;;13.81;40.04;154906.72;5034912;28;20472;-83
2021/04/27 10:13:35;;;;;;;9.47;8.47;;;;;;;13.41;40.42;154804.19;5033301;28;20844;-83
2021/04/27 10:16:10;;;;;;;9.10;8.00;;;;;;;13.77;39.68;154896.31;5034809;28;20453;-83
2021/04/27 10:18:45;;;;;;;8.70;7.80;;;;;;;13.53;39.92;154834.06;5039165;28;20447;-83
2021/04/27 10:21:20;;;;;;;9.77;8.70;;;;;;;13.31;40.92;154779.56;5053423;28;20435;-83
2021/04/27 10:23:58;;;;;;;10.80;7.93;;;;;;;13.60;40.60;154852.22;5034696;28;20904;-83
2021/04/27 10:26:35;;;;;;;10.60;8.30;;;;;;;13.03;40.79;154706.81;5034432;28;20435;-83
2021/04/27 10:29:16;;;;;;;11.67;8.93;;;;;;;13.11;40.11;154727.63;5028250;28;20440;-82
2021/04/27 10:32:16;;;;;;;10.77;9.27;;;;;;;13.09;40.88;154721.13;5018919;28;20539;-83
2021/04/27 10:35:10;;;;;;;10.20;8.57;;;;;;;13.41;41.24;154805.50;5032439;28;20428;-83
2021/04/27 10:38:00;;;;;;;10.00;8.67;;;;;;;13.70;39.60;154878.16;5017345;28;21005;-83
2021/04/27 10:40:43;;;;;;;13.80;7.90;;;;;;;13.76;40.50;154893.75;5032904;28;20521;-83
2021/04/27 10:43:52;;;;;;;12.27;9.20;;;;;;;13.65;38.89;154865.19;5029094;28;20445;-83
2021/04/27 10:47:00;;;;;;;9.97;8.40;;;;;;;13.50;40.40;154826.25;5017563;28;20556;-83
2021/04/27 10:49:37;;;;;;;9.67;8.30;;;;;;;13.52;39.02;154831.44;5025021;28;20456;-82
2021/04/27 10:52:27;;;;;;;11.40;9.17;;;;;;;13.70;38.89;154878.16;5038887;28;20452;-83
2021/04/27 10:55:25;;;;;;;11.00;8.40;;;;;;;13.62;38.94;154857.38;5051438;28;20455;-82
2021/04/27 10:58:02;;;;;;;8.23;7.10;;;;;;;13.86;39.19;154919.69;5030014;28;20453;-83
2021/04/27 11:00:40;;;;;;;12.07;9.00;;;;;;;14.13;36.85;154988.50;5044291;28;20491;-83
2021/04/27 11:03:22;;;;;;;9.77;8.77;;;;;;;13.96;37.31;154945.66;5040994;28;20453;-83
2021/04/27 11:06:06;;;;;;;12.27;8.37;;;;;;;13.89;37.54;154928.81;5028674;28;20453;-85
2021/04/27 11:08:51;;;;;;;12.03;8.70;;;;;;;13.84;38.56;154915.81;5024721;28;20532;-83
2021/04/27 11:11:28;;;;;;;9.37;8.43;;;;;;;14.18;37.68;155001.50;5013755;28;20489;-82
2021/04/27 11:14:18;;;;;;;15.33;9.30;;;;;;;13.83;37.80;154911.91;5020531;28;20535;-82
2021/04/27 11:16:55;;;;;;;9.93;8.50;;;;;;;14.04;38.12;154967.72;5036632;28;20729;-83
2021/04/27 11:19:43;;;;;;;8.40;7.33;;;;;;;14.43;36.90;155067.75;5013941;28;20461;-83
2021/04/27 11:22:21;;;;;;;11.33;8.63;;;;;;;14.46;37.59;155074.25;5064788;28;20448;-83
2021/04/27 11:24:57;;;;;;;9.43;8.43;;;;;;;14.22;37.65;155011.84;5030292;28;20448;-83
2021/04/27 11:27:33;;;;;;;11.10;8.97;;;;;;;14.28;37.60;155028.75;5032624;28;20445;-83
2021/04/27 11:30:10;;;;;;;12.87;8.83;;;;;;;14.11;37.55;154984.59;5013706;28;20456;-83
2021/04/27 11:32:47;;;;;;;10.83;9.30;;;;;;;14.18;36.15;155001.50;5048237;28;20454;-83
2021/04/27 11:35:23;;;;;;;10.40;8.63;;;;;;;14.25;36.56;155020.94;5031727;28;20454;-83
2021/04/27 11:38:00;;;;;;;10.63;9.33;;;;;;;14.39;35.61;155057.38;5033878;28;20445;-83
2021/04/27 11:40:37;;;;;;;10.23;8.93;;;;;;;14.48;35.93;155080.72;5032099;28;20457;-83
2021/04/27 11:43:13;;;;;;;11.60;9.07;;;;;;;14.46;36.04;155075.53;5032095;28;20436;-83
2021/04/27 11:45:51;;;;;;;12.97;8.73;;;;;;;14.47;35.89;155078.16;5032901;28;20437;-83
2021/04/27 11:48:27;;;;;;;11.97;8.90;;;;;;;14.48;37.01;155079.47;5030805;28;20453;-83
2021/04/27 11:51:03;;;;;;;12.20;9.30;;;;;;;13.97;36.05;154948.25;5031561;28;20445;-83
2021/04/27 11:53:38;;;;;;;11.60;8.70;;;;;;;14.19;36.87;155005.34;5024922;28;20468;-82
2021/04/27 11:56:13;;;;;;;9.10;8.13;;;;;;;14.55;36.14;155098.94;5048257;28;20494;-82
2021/04/27 11:58:49;;;;;;;11.33;8.37;;;;;;;14.85;36.20;155174.28;5032607;28;20426;-83
2021/04/27 12:01:24;;;;;;;9.23;7.40;;;;;;;14.90;36.44;155187.28;5031787;28;20877;-83
2021/04/27 12:04:06;;;;;;;8.87;7.37;;;;;;;14.85;36.15;155174.28;5032805;28;20905;-83
2021/04/27 12:06:58;;;;;;;11.40;7.73;;;;;;;14.90;35.99;155188.56;5019628;28;20486;-82
2021/04/27 12:09:40;;;;;;;9.10;7.50;;;;;;;14.91;35.24;155189.84;5032373;28;20502;-81
2021/04/27 12:12:18;;;;;;;8.67;7.77;;;;;;;15.23;35.98;155274.31;5031520;28;20450;-82
2021/04/27 12:14:55;;;;;;;9.07;8.17;;;;;;;15.03;34.66;155221.03;5047472;28;20469;-81
2021/04/27 12:17:32;;;;;;;11.20;8.50;;;;;;;14.72;34.91;155140.50;5031976;28;20826;-81
2021/04/27 12:20:10;;;;;;;10.80;8.30;;;;;;;14.67;35.13;155127.53;5032998;28;20462;-82
2021/04/27 12:22:48;;;;;;;9.80;8.80;;;;;;;14.80;34.56;155162.56;5031629;28;20591;-82
2021/04/27 12:25:25;;;;;;;9.70;8.13;;;;;;;14.84;35.31;155171.66;5031415;28;20438;-81